createdAt,value
2022-11-29T00:01:33.809Z,84.80
2022-11-29T00:04:02.272Z,85.98
2022-11-29T00:06:32.209Z,86.55
2022-11-29T00:09:04.517Z,87.37
2022-11-29T00:11:53.782Z,87.40
2022-11-29T00:14:22.155Z,87.53
2022-11-29T00:16:52.573Z,86.84
2022-11-29T00:19:21.017Z,87.46
2022-11-29T00:21:48.403Z,87.77
2022-11-29T00:24:16.625Z,88.70
2022-11-29T00:26:44.114Z,87.54
2022-11-29T00:29:14.439Z,87.63
2022-11-29T00:31:43.232Z,87.28
2022-11-29T00:34:12.180Z,86.64
2022-11-29T00:36:40.049Z,86.46
2022-11-29T00:39:07.780Z,87.34
2022-11-29T00:41:35.040Z,87.10
2022-11-29T00:44:02.335Z,87.49
2022-11-29T00:46:29.910Z,87.68
2022-11-29T00:48:57.225Z,87.66
2022-11-29T00:51:24.576Z,87.75
2022-11-29T00:53:52.137Z,87.39
2022-11-29T00:56:19.479Z,87.12
2022-11-29T00:58:48.715Z,87.40
2022-11-29T01:01:16.487Z,87.54
2022-11-29T01:03:44.066Z,87.48
2022-11-29T01:06:14.618Z,87.33
2022-11-29T01:08:42.898Z,86.14
2022-11-29T01:11:22.546Z,86.24
2022-11-29T01:13:52.025Z,85.96
2022-11-29T01:16:20.058Z,86.61
2022-11-29T01:18:47.854Z,86.19
2022-11-29T01:21:18.897Z,86.47
2022-11-29T01:23:46.809Z,86.60
2022-11-29T01:26:18.158Z,85.79
2022-11-29T01:28:47.835Z,87.06
2022-11-29T01:31:19.134Z,88.31
2022-11-29T01:33:47.228Z,88.12
2022-11-29T01:36:15.031Z,87.88
2022-11-29T01:38:45.202Z,88.32
2022-11-29T01:41:21.522Z,87.65
2022-11-29T01:44:06.019Z,88.11
2022-11-29T01:46:39.437Z,87.46
2022-11-29T01:49:29.196Z,87.43
2022-11-29T01:52:17.010Z,88.29
2022-11-29T01:54:48.624Z,87.56
2022-11-29T01:57:16.998Z,88.21
2022-11-29T01:59:48.575Z,87.62
2022-11-29T02:02:21.136Z,87.62
2022-11-29T02:04:49.835Z,86.83
2022-11-29T02:07:17.550Z,87.30
2022-11-29T02:09:44.884Z,87.54
2022-11-29T02:12:19.027Z,87.81
2022-11-29T02:14:55.678Z,87.46
2022-11-29T02:17:43.186Z,87.66
2022-11-29T02:20:51.737Z,87.29
2022-11-29T02:23:56.707Z,87.01
2022-11-29T02:27:12.324Z,86.41
2022-11-29T02:30:04.515Z,86.58
2022-11-29T02:33:06.198Z,85.77
2022-11-29T02:35:33.588Z,86.13
2022-11-29T02:38:04.376Z,84.94
2022-11-29T02:41:05.319Z,85.16
2022-11-29T02:44:10.363Z,84.78
2022-11-29T02:47:09.618Z,85.62
2022-11-29T02:49:53.954Z,86.27
2022-11-29T02:52:31.709Z,87.67
2022-11-29T02:55:52.070Z,87.53
2022-11-29T02:58:54.337Z,88.20
2022-11-29T03:01:40.961Z,88.04
2022-11-29T03:04:26.417Z,87.94
2022-11-29T03:07:39.421Z,88.50
2022-11-29T03:10:34.310Z,87.65
2022-11-29T03:13:06.173Z,86.62
2022-11-29T03:15:48.573Z,84.17
2022-11-29T03:18:42.049Z,84.82
2022-11-29T03:21:28.048Z,84.60
2022-11-29T03:24:04.525Z,84.15
2022-11-29T03:26:37.949Z,83.62
2022-11-29T03:29:45.944Z,84.42
2022-11-29T03:32:23.013Z,84.01
2022-11-29T03:34:57.127Z,84.16
2022-11-29T03:37:47.560Z,85.37
2022-11-29T03:40:19.825Z,86.87
2022-11-29T03:42:59.376Z,86.84
2022-11-29T03:45:52.240Z,85.44
2022-11-29T03:48:29.507Z,86.66
2022-11-29T03:51:04.030Z,86.98
2022-11-29T03:53:37.447Z,86.05
2022-11-29T03:56:29.487Z,86.52
2022-11-29T03:59:12.730Z,86.51
2022-11-29T04:02:28.648Z,86.61
2022-11-29T04:05:37.892Z,87.52
2022-11-29T04:08:31.640Z,87.74
2022-11-29T04:11:37.295Z,84.66
2022-11-29T04:14:13.502Z,85.51
2022-11-29T04:17:10.706Z,85.90
2022-11-29T04:20:14.008Z,85.51
2022-11-29T04:23:10.455Z,85.96
2022-11-29T04:26:34.658Z,87.28
2022-11-29T04:29:26.491Z,87.18
2022-11-29T04:32:00.102Z,86.34
2022-11-29T04:35:12.627Z,86.33
2022-11-29T04:38:09.076Z,86.34
2022-11-29T04:40:58.003Z,85.49
2022-11-29T04:44:09.841Z,85.74
2022-11-29T04:46:46.586Z,86.31
2022-11-29T04:49:53.207Z,86.73
2022-11-29T04:52:26.726Z,86.82
2022-11-29T04:55:21.651Z,86.31
2022-11-29T04:58:07.077Z,86.18
2022-11-29T05:01:04.613Z,86.38
2022-11-29T05:03:35.873Z,85.75
2022-11-29T05:06:28.886Z,86.32
2022-11-29T05:09:51.167Z,86.59
2022-11-29T05:12:32.657Z,86.39
2022-11-29T05:15:19.006Z,86.58
2022-11-29T05:18:17.206Z,86.82
2022-11-29T05:20:53.792Z,86.88
2022-11-29T05:24:06.686Z,86.38
2022-11-29T05:26:44.290Z,86.43
2022-11-29T05:29:20.934Z,86.44
2022-11-29T05:32:39.540Z,86.18
2022-11-29T05:35:44.385Z,85.35
2022-11-29T05:38:24.453Z,86.12
2022-11-29T05:41:24.679Z,86.03
2022-11-29T05:44:07.749Z,85.89
2022-11-29T05:46:52.982Z,85.82
2022-11-29T05:49:29.688Z,85.88
2022-11-29T05:52:30.916Z,85.50
2022-11-29T05:55:14.347Z,85.26
2022-11-29T05:58:00.634Z,84.40
2022-11-29T06:00:52.168Z,85.26
2022-11-29T06:03:39.461Z,84.96
2022-11-29T06:06:19.563Z,85.03
2022-11-29T06:08:55.712Z,85.54
2022-11-29T06:11:43.299Z,86.00
2022-11-29T06:14:42.767Z,85.62
2022-11-29T06:17:10.283Z,85.89
2022-11-29T06:20:04.466Z,86.32
2022-11-29T06:23:08.042Z,85.85
2022-11-29T06:25:53.466Z,85.60
2022-11-29T06:28:51.699Z,85.76
2022-11-29T06:32:00.229Z,85.88
2022-11-29T06:34:47.678Z,86.31
2022-11-29T06:37:23.717Z,85.56
2022-11-29T06:39:51.718Z,84.48
2022-11-29T06:42:19.405Z,83.47
2022-11-29T06:44:48.072Z,85.09
2022-11-29T06:47:49.718Z,84.29
2022-11-29T06:50:43.872Z,83.64
2022-11-29T06:53:18.706Z,84.40
2022-11-29T06:55:46.703Z,85.12
2022-11-29T06:58:36.039Z,85.65
2022-11-29T07:01:18.573Z,84.97
2022-11-29T07:04:24.454Z,84.94
2022-11-29T07:06:53.801Z,84.94
2022-11-29T07:09:25.629Z,84.47
2022-11-29T07:11:53.554Z,84.09
2022-11-29T07:14:21.687Z,83.08
2022-11-29T07:16:57.638Z,83.50
2022-11-29T07:19:44.359Z,84.39
2022-11-29T07:22:33.961Z,84.44
2022-11-29T07:25:29.500Z,83.02
2022-11-29T07:28:19.369Z,80.37
2022-11-29T07:31:00.154Z,81.74
2022-11-29T07:33:47.213Z,84.61
2022-11-29T07:36:38.296Z,83.21
2022-11-29T07:39:24.454Z,83.17
2022-11-29T07:42:06.703Z,83.95
2022-11-29T07:44:55.333Z,84.62
2022-11-29T07:47:22.989Z,85.01
2022-11-29T07:49:51.112Z,85.53
2022-11-29T07:52:18.354Z,85.32
2022-11-29T07:54:46.505Z,85.35
2022-11-29T07:57:14.016Z,84.65
2022-11-29T07:59:41.578Z,85.03
2022-11-29T08:02:12.191Z,84.98
2022-11-29T08:04:44.704Z,82.11
2022-11-29T08:07:13.072Z,82.63
2022-11-29T08:09:41.914Z,83.78
2022-11-29T08:12:09.316Z,82.95
2022-11-29T08:14:36.794Z,82.09
2022-11-29T08:17:05.708Z,82.51
2022-11-29T08:19:32.993Z,81.49
2022-11-29T08:22:00.332Z,80.57
2022-11-29T08:24:28.863Z,81.27
2022-11-29T08:26:56.801Z,80.60
2022-11-29T08:29:25.746Z,79.83
2022-11-29T08:31:54.788Z,79.57
2022-11-29T08:34:23.873Z,81.11
2022-11-29T08:36:54.782Z,81.74
2022-11-29T08:39:23.398Z,82.22
2022-11-29T08:41:50.651Z,82.45
2022-11-29T08:44:18.369Z,83.52
2022-11-29T08:47:04.522Z,82.69
2022-11-29T08:49:32.196Z,83.71
2022-11-29T08:52:18.782Z,83.53
2022-11-29T08:54:46.388Z,82.38
2022-11-29T08:57:39.037Z,82.26
2022-11-29T09:00:02.276Z,82.27
2022-11-29T09:02:31.602Z,81.58
2022-11-29T09:04:58.920Z,81.44
2022-11-29T09:07:28.806Z,81.51
2022-11-29T09:09:56.485Z,81.08
2022-11-29T09:12:23.877Z,81.74
2022-11-29T09:14:51.261Z,83.13
2022-11-29T09:17:18.890Z,83.90
2022-11-29T09:19:46.559Z,84.77
2022-11-29T09:22:14.304Z,84.03
2022-11-29T09:24:42.272Z,82.80
2022-11-29T09:27:11.613Z,82.82
2022-11-29T09:29:39.647Z,83.17
2022-11-29T09:32:07.744Z,84.05
2022-11-29T09:34:35.268Z,84.54
2022-11-29T09:37:03.086Z,84.54
2022-11-29T09:39:30.655Z,84.26
2022-11-29T09:42:06.326Z,84.11
2022-11-29T09:45:07.999Z,81.85
2022-11-29T09:48:16.868Z,81.59
2022-11-29T09:51:04.949Z,81.69
2022-11-29T09:53:56.637Z,81.36
2022-11-29T09:56:36.785Z,82.79
2022-11-29T09:59:19.601Z,83.81
2022-11-29T10:01:54.936Z,81.75
2022-11-29T10:04:29.207Z,82.15
2022-11-29T10:07:08.834Z,81.71
2022-11-29T10:10:05.186Z,82.15
2022-11-29T10:12:46.168Z,80.66
2022-11-29T10:15:27.576Z,81.47
2022-11-29T10:18:02.663Z,81.24
2022-11-29T10:20:42.442Z,81.01
2022-11-29T10:23:12.047Z,83.45
2022-11-29T10:25:47.558Z,83.51
2022-11-29T10:28:17.993Z,81.48
2022-11-29T10:30:46.706Z,81.65
2022-11-29T10:33:25.673Z,84.42
2022-11-29T10:35:57.034Z,84.60
2022-11-29T10:38:32.361Z,85.05
2022-11-29T10:41:09.683Z,85.71
2022-11-29T10:43:37.927Z,83.23
2022-11-29T10:46:10.918Z,85.06
2022-11-29T10:48:38.815Z,86.22
2022-11-29T10:51:17.078Z,85.81
2022-11-29T10:53:45.914Z,85.43
2022-11-29T10:56:31.472Z,85.78
2022-11-29T10:59:03.400Z,86.22
2022-11-29T11:01:38.660Z,86.88
2022-11-29T11:04:10.200Z,86.66
2022-11-29T11:06:47.200Z,86.48
2022-11-29T11:09:39.342Z,86.16
2022-11-29T11:12:22.500Z,85.45
2022-11-29T11:14:51.608Z,85.95
2022-11-29T11:17:22.662Z,85.11
2022-11-29T11:20:20.203Z,85.07
2022-11-29T11:23:03.657Z,85.88
2022-11-29T11:25:35.423Z,86.41
2022-11-29T11:28:28.832Z,85.76
2022-11-29T11:31:02.470Z,84.12
2022-11-29T11:33:48.863Z,84.56
2022-11-29T11:36:27.546Z,85.07
2022-11-29T11:39:13.526Z,84.87
2022-11-29T11:42:04.133Z,86.00
2022-11-29T11:44:53.796Z,85.73
2022-11-29T11:47:33.207Z,86.49
2022-11-29T11:50:02.367Z,86.69
2022-11-29T11:52:52.583Z,86.35
2022-11-29T11:55:43.137Z,86.15
2022-11-29T11:58:13.754Z,86.27
2022-11-29T12:01:06.114Z,86.60
2022-11-29T12:03:50.107Z,88.15
2022-11-29T12:06:43.983Z,87.80
2022-11-29T12:09:28.559Z,89.08
2022-11-29T12:12:15.874Z,89.47
2022-11-29T12:14:51.151Z,90.89
2022-11-29T12:17:33.667Z,89.86
2022-11-29T12:20:07.782Z,89.11
2022-11-29T12:22:48.548Z,88.24
2022-11-29T12:25:23.505Z,88.06
2022-11-29T12:27:52.295Z,87.37
2022-11-29T12:30:20.789Z,87.39
2022-11-29T12:33:17.516Z,88.11
2022-11-29T12:36:04.878Z,88.01
2022-11-29T12:38:41.232Z,90.67
2022-11-29T12:41:50.956Z,92.38
2022-11-29T12:44:30.038Z,94.26
2022-11-29T12:47:35.680Z,94.24
2022-11-29T12:50:41.517Z,93.73
2022-11-29T12:53:27.475Z,94.30
2022-11-29T12:56:17.778Z,93.53
2022-11-29T12:58:54.670Z,92.93
2022-11-29T13:01:40.303Z,93.24
2022-11-29T13:04:21.449Z,91.57
2022-11-29T13:07:01.123Z,90.01
2022-11-29T13:09:57.723Z,89.54
2022-11-29T13:12:41.159Z,90.97
2022-11-29T13:15:17.036Z,90.94
2022-11-29T13:18:11.404Z,91.31
2022-11-29T13:20:39.429Z,91.51
2022-11-29T13:23:16.541Z,91.30
2022-11-29T13:25:48.027Z,92.44
2022-11-29T13:28:23.276Z,92.47
2022-11-29T13:30:52.579Z,92.31
2022-11-29T13:33:26.046Z,92.24
2022-11-29T13:36:21.361Z,92.71
2022-11-29T13:39:07.026Z,92.24
2022-11-29T13:41:46.831Z,93.21
2022-11-29T13:44:33.946Z,92.38
2022-11-29T13:47:14.938Z,92.83
2022-11-29T13:49:59.433Z,93.34
2022-11-29T13:52:36.441Z,92.80
2022-11-29T13:55:10.460Z,92.77
2022-11-29T14:00:44.596Z,94.45
2022-11-29T14:03:24.444Z,94.20
2022-11-29T14:06:10.361Z,93.32
2022-11-29T14:12:06.145Z,93.28
2022-11-29T14:14:51.980Z,93.76
2022-11-29T14:17:34.707Z,93.95
2022-11-29T14:20:28.599Z,93.94
2022-11-29T14:23:05.404Z,94.69
2022-11-29T14:25:51.627Z,95.10
2022-11-29T14:28:22.586Z,93.88
2022-11-29T14:30:59.139Z,93.77
2022-11-29T14:33:47.924Z,94.18
2022-11-29T14:36:15.680Z,93.05
2022-11-29T14:39:17.518Z,93.22
2022-11-29T14:41:51.239Z,93.29
2022-11-29T14:44:31.253Z,93.46
2022-11-29T14:47:03.499Z,93.12
2022-11-29T14:49:32.065Z,93.45
2022-11-29T14:52:07.196Z,92.97
2022-11-29T14:54:36.553Z,94.42
2022-11-29T14:57:59.254Z,94.84
2022-11-29T15:00:35.292Z,94.56
2022-11-29T15:03:29.028Z,94.74
2022-11-29T15:06:14.388Z,94.42
2022-11-29T15:08:50.313Z,93.34
2022-11-29T15:11:50.763Z,93.52
2022-11-29T15:14:32.665Z,93.29
2022-11-29T15:17:42.737Z,93.20
2022-11-29T15:20:51.571Z,93.04
2022-11-29T15:23:19.296Z,92.96
2022-11-29T15:25:52.677Z,92.95
2022-11-29T15:28:27.237Z,93.65
2022-11-29T15:31:07.642Z,93.53
2022-11-29T15:33:40.086Z,93.94
2022-11-29T15:36:14.957Z,94.36
2022-11-29T15:39:01.825Z,94.67
2022-11-29T15:41:30.960Z,94.59
2022-11-29T15:44:07.577Z,95.11
2022-11-29T15:46:36.683Z,95.48
2022-11-29T15:49:19.703Z,95.48
2022-11-29T15:51:55.281Z,95.59
2022-11-29T15:54:42.905Z,95.18
2022-11-29T15:57:23.591Z,94.57
2022-11-29T15:59:56.718Z,94.54
2022-11-29T16:02:28.333Z,94.64
2022-11-29T16:05:04.346Z,94.31
2022-11-29T16:07:34.546Z,94.06
2022-11-29T16:10:07.929Z,93.52
2022-11-29T16:12:35.297Z,92.49
2022-11-29T16:15:03.828Z,91.82
2022-11-29T16:17:34.413Z,92.64
2022-11-29T16:20:23.616Z,93.47
2022-11-29T16:23:14.486Z,94.23
2022-11-29T16:25:59.534Z,93.73
2022-11-29T16:28:50.286Z,94.24
2022-11-29T16:31:20.048Z,94.35
2022-11-29T16:33:50.309Z,93.84
2022-11-29T16:36:29.138Z,94.24
2022-11-29T16:39:01.357Z,94.65
2022-11-29T16:41:34.338Z,94.93
2022-11-29T16:44:03.783Z,94.64
2022-11-29T16:46:37.489Z,94.18
2022-11-29T16:49:37.480Z,95.14
2022-11-29T16:52:24.050Z,94.72
2022-11-29T16:54:52.382Z,94.40
2022-11-29T16:57:20.028Z,94.47
2022-11-29T16:59:47.500Z,94.84
2022-11-29T17:02:16.065Z,95.37
2022-11-29T17:04:44.699Z,96.08
2022-11-29T17:07:22.599Z,96.03
2022-11-29T17:09:50.237Z,95.58
2022-11-29T17:12:17.663Z,95.93
2022-11-29T17:14:45.628Z,95.89
2022-11-29T17:17:18.440Z,96.22
2022-11-29T17:19:46.050Z,96.06
2022-11-29T17:22:14.100Z,96.04
2022-11-29T17:24:47.761Z,96.31
2022-11-29T17:27:16.419Z,96.25
2022-11-29T17:29:44.386Z,95.59
2022-11-29T17:32:12.257Z,95.03
2022-11-29T17:34:39.899Z,95.07
2022-11-29T17:37:07.738Z,94.76
2022-11-29T17:39:35.317Z,94.15
2022-11-29T17:42:03.075Z,94.01
2022-11-29T17:44:30.625Z,93.92
2022-11-29T17:46:57.970Z,92.86
2022-11-29T17:49:26.493Z,93.99
2022-11-29T17:51:54.226Z,94.08
2022-11-29T17:54:22.808Z,94.09
2022-11-29T17:56:51.012Z,92.90
2022-11-29T17:59:18.726Z,92.93
2022-11-29T18:01:49.005Z,93.98
2022-11-29T18:04:16.979Z,94.36
2022-11-29T18:06:50.349Z,94.56
2022-11-29T18:09:19.876Z,94.49
2022-11-29T18:11:49.878Z,94.39
2022-11-29T18:14:21.354Z,94.42
2022-11-29T18:16:49.537Z,94.60
2022-11-29T18:19:20.013Z,94.33
2022-11-29T18:21:47.720Z,94.17
2022-11-29T18:24:16.730Z,96.07
2022-11-29T18:26:44.273Z,95.70
2022-11-29T18:29:12.615Z,95.21
2022-11-29T18:31:43.411Z,94.97
2022-11-29T18:34:13.262Z,94.58
2022-11-29T18:36:44.306Z,94.81
2022-11-29T18:39:18.183Z,95.24
2022-11-29T18:41:50.443Z,95.27
2022-11-29T18:44:20.094Z,95.35
2022-11-29T18:46:48.199Z,95.08
2022-11-29T18:49:17.340Z,95.03
2022-11-29T18:51:46.152Z,94.63
2022-11-29T18:54:15.997Z,94.39
2022-11-29T18:56:43.794Z,94.32
2022-11-29T18:59:17.425Z,93.88
2022-11-29T19:01:47.797Z,94.17
2022-11-29T19:04:18.359Z,96.06
2022-11-29T19:06:46.636Z,96.62
2022-11-29T19:09:21.402Z,98.26
2022-11-29T19:11:50.569Z,98.91
2022-11-29T19:14:18.759Z,99.49
2022-11-29T19:16:48.015Z,100.00
2022-11-29T19:19:16.206Z,100.00
2022-11-29T19:21:43.998Z,99.63
2022-11-29T19:24:14.977Z,99.26
2022-11-29T19:26:45.073Z,99.01
2022-11-29T19:29:16.441Z,98.86
2022-11-29T19:31:59.218Z,98.66
2022-11-29T19:34:36.193Z,98.92
2022-11-29T19:37:04.074Z,98.00
2022-11-29T19:39:34.110Z,97.38
2022-11-29T19:42:01.775Z,97.03
2022-11-29T19:44:39.076Z,96.72
2022-11-29T19:47:16.287Z,96.99
2022-11-29T19:49:46.718Z,96.70
2022-11-29T19:52:15.227Z,96.14
2022-11-29T19:54:42.827Z,96.08
2022-11-29T19:57:13.181Z,95.82
2022-11-29T19:59:41.794Z,95.70
2022-11-29T20:02:10.965Z,95.65
2022-11-29T20:04:38.707Z,94.99
2022-11-29T20:07:06.886Z,95.81
2022-11-29T20:09:34.468Z,95.88
2022-11-29T20:12:02.161Z,95.66
2022-11-29T20:14:29.833Z,95.81
2022-11-29T20:16:58.626Z,95.80
2022-11-29T20:19:27.750Z,95.47
2022-11-29T20:21:55.535Z,94.87
2022-11-29T20:24:23.427Z,95.92
2022-11-29T20:26:51.401Z,96.44
2022-11-29T20:29:25.638Z,97.13
2022-11-29T20:31:55.044Z,97.39
2022-11-29T20:34:22.585Z,97.35
2022-11-29T20:37:10.047Z,96.82
2022-11-29T20:39:48.581Z,97.41
2022-11-29T20:42:22.265Z,97.31
2022-11-29T20:44:55.766Z,97.05
2022-11-29T20:47:26.594Z,96.77
2022-11-29T20:49:54.833Z,95.83
2022-11-29T20:52:45.160Z,96.56
2022-11-29T20:55:12.857Z,96.22
2022-11-29T20:57:40.273Z,97.89
2022-11-29T21:00:11.574Z,98.60
2022-11-29T21:02:39.796Z,97.67
2022-11-29T21:05:07.917Z,96.47
2022-11-29T21:07:35.483Z,95.43
2022-11-29T21:10:03.905Z,97.37
2022-11-29T21:12:32.035Z,97.37
2022-11-29T21:14:59.744Z,97.57
2022-11-29T21:17:33.223Z,97.56
2022-11-29T21:20:03.355Z,97.60
2022-11-29T21:22:50.614Z,97.39
2022-11-29T21:25:43.366Z,96.97
2022-11-29T21:28:16.288Z,96.82
2022-11-29T21:30:44.257Z,96.68
2022-11-29T21:33:12.385Z,96.73
2022-11-29T21:35:40.208Z,96.70
2022-11-29T21:38:13.776Z,96.51
2022-11-29T21:40:41.493Z,96.52
2022-11-29T21:43:08.875Z,96.37
2022-11-29T21:45:36.436Z,97.07
2022-11-29T21:48:04.249Z,98.11
2022-11-29T21:50:31.803Z,97.14
2022-11-29T21:52:59.088Z,97.18
2022-11-29T21:55:31.783Z,99.60
2022-11-29T21:57:59.739Z,98.68
2022-11-29T22:00:27.425Z,97.87
2022-11-29T22:02:56.555Z,98.11
2022-11-29T22:05:23.834Z,98.12
2022-11-29T22:07:55.713Z,97.71
2022-11-29T22:10:23.437Z,97.79
2022-11-29T22:12:52.624Z,97.83
2022-11-29T22:15:24.436Z,98.11
2022-11-29T22:17:53.573Z,97.80
2022-11-29T22:20:20.977Z,97.77
2022-11-29T22:22:48.770Z,97.21
2022-11-29T22:25:16.492Z,97.25
2022-11-29T22:27:44.123Z,98.53
2022-11-29T22:30:15.761Z,98.81
2022-11-29T22:32:43.551Z,98.33
2022-11-29T22:35:10.848Z,98.48
2022-11-29T22:37:38.152Z,99.64
2022-11-29T22:40:06.759Z,99.80
2022-11-29T22:42:34.001Z,98.50
2022-11-29T22:45:02.335Z,99.58
2022-11-29T22:47:30.039Z,99.72
2022-11-29T22:49:57.363Z,99.18
2022-11-29T22:52:27.514Z,99.47
2022-11-29T22:54:58.700Z,99.23
2022-11-29T22:57:28.597Z,98.97
2022-11-29T22:59:56.155Z,99.84
2022-11-29T23:02:23.429Z,98.81
2022-11-29T23:04:50.876Z,98.39
2022-11-29T23:07:18.565Z,98.73
2022-11-29T23:09:45.912Z,99.16
2022-11-29T23:12:13.184Z,99.31
2022-11-29T23:14:40.815Z,98.50
2022-11-29T23:17:08.085Z,98.17
2022-11-29T23:19:35.360Z,98.31
2022-11-29T23:22:03.006Z,97.93
2022-11-29T23:24:30.593Z,97.92
2022-11-29T23:26:59.937Z,97.36
2022-11-29T23:29:28.535Z,97.57
2022-11-29T23:31:56.573Z,97.82
2022-11-29T23:34:23.842Z,97.22
2022-11-29T23:36:53.069Z,97.84
2022-11-29T23:39:20.777Z,98.21
2022-11-29T23:41:48.022Z,96.73
2022-11-29T23:44:15.587Z,97.14
2022-11-29T23:46:42.933Z,97.74
2022-11-29T23:49:10.217Z,97.99
2022-11-29T23:51:37.824Z,99.18
2022-11-29T23:54:05.162Z,99.67
2022-11-29T23:56:35.646Z,100.00
2022-11-29T23:59:03.831Z,100.00
